Schedule Details


Flight Number: CTN632
Departure: Zemunik (LDZD) at 22:25
Arrival: Pula (LDPL) at 23:00
Route: EBITA N606 LOS

Weather Information
LDZD 191100Z 24004KT 190V300 9999 FEW047 BKN065 14/03 Q1019 BECMG 25008KT
LDPL 191100Z 27006KT 9999 FEW055 11/08 Q1019 NOSIG
Schedule Frequency

Route Map